Yorktown, Virginia
Current Conditions -  °F | °C
As of 9:54 PM on Tuesday 21 Oct 2014 (Local Time) from KPHF Reporting Station
Overcast Overcast  
Wind Chill: 67°   Ceiling: 11000
Heat Index: 67°   Visibility: 10mi
Dew Point: 52°   Wind: 13mph
Humidity: 59%   Direction: 330°NNW
Pressure: 29.86"   Gusts: NA
Location:  37.24°N, 76.51°W
Report Text: KPHF 220154Z 33011KT 10SM OVC110 19/11 A2986 RMK AO2 SLP110 T01940111
Loading
Personal Weather Stations






























Interactive Weather Map
Tropical Storm Tracking
New forecast layout! Learn more

10-Day Weather Forecast

Advertisements
Track Severe Weather on mobile